createdAt,value
2017-11-26T00:01:11.708Z,0
2017-11-26T00:02:24.429Z,0
2017-11-26T00:03:37.125Z,0
2017-11-26T00:04:49.849Z,0
2017-11-26T00:06:02.620Z,0
2017-11-26T00:07:15.060Z,0
2017-11-26T00:08:28.166Z,0
2017-11-26T00:09:40.905Z,0
2017-11-26T00:10:53.605Z,0
2017-11-26T00:12:06.389Z,0
2017-11-26T00:13:19.144Z,0
2017-11-26T00:14:31.382Z,0
2017-11-26T00:15:43.605Z,0
2017-11-26T00:16:56.350Z,0
2017-11-26T00:18:09.029Z,0
2017-11-26T00:19:21.764Z,0
2017-11-26T00:20:34.433Z,0
2017-11-26T00:21:47.217Z,0
2017-11-26T00:22:59.969Z,0
2017-11-26T00:24:12.720Z,0
2017-11-26T00:25:25.436Z,0
2017-11-26T00:26:38.196Z,0
2017-11-26T00:27:50.528Z,0
2017-11-26T00:29:02.816Z,0
2017-11-26T00:30:14.636Z,0
2017-11-26T00:31:27.405Z,0
2017-11-26T00:32:39.308Z,0
2017-11-26T00:33:51.639Z,0
2017-11-26T00:35:03.909Z,0
2017-11-26T00:36:16.183Z,0
2017-11-26T00:37:28.910Z,0
2017-11-26T00:38:41.654Z,0
2017-11-26T00:39:54.392Z,0
2017-11-26T00:41:07.060Z,0
2017-11-26T00:42:19.336Z,0
2017-11-26T00:43:32.089Z,0
2017-11-26T00:44:44.361Z,0
2017-11-26T00:45:57.100Z,0
2017-11-26T00:47:09.374Z,0
2017-11-26T00:48:22.090Z,0
2017-11-26T00:49:34.765Z,0
2017-11-26T00:50:47.040Z,0
2017-11-26T00:51:59.284Z,0
2017-11-26T00:53:11.993Z,0
2017-11-26T00:54:24.257Z,0
2017-11-26T00:55:36.523Z,0
2017-11-26T00:56:48.725Z,0
2017-11-26T00:58:01.452Z,0
2017-11-26T00:59:13.761Z,0
2017-11-26T01:00:26.512Z,0
2017-11-26T01:01:39.234Z,0
2017-11-26T01:02:51.482Z,0
2017-11-26T01:04:04.188Z,0
2017-11-26T01:05:16.872Z,0
2017-11-26T01:06:29.141Z,0
2017-11-26T01:07:41.826Z,0
2017-11-26T01:08:54.600Z,0
2017-11-26T01:10:07.338Z,0
2017-11-26T01:11:20.055Z,0
2017-11-26T01:12:32.787Z,0
2017-11-26T01:13:44.791Z,0
2017-11-26T01:14:57.544Z,0
2017-11-26T01:16:10.321Z,0
2017-11-26T01:17:23.083Z,0
2017-11-26T01:18:35.377Z,0
2017-11-26T01:19:48.038Z,0
2017-11-26T01:21:00.262Z,0
2017-11-26T01:22:13.014Z,0
2017-11-26T01:23:25.289Z,0
2017-11-26T01:24:37.545Z,0
2017-11-26T01:25:49.861Z,0
2017-11-26T01:27:02.155Z,0
2017-11-26T01:28:14.465Z,0
2017-11-26T01:29:27.228Z,0
2017-11-26T01:30:40.022Z,0
2017-11-26T01:31:52.771Z,0
2017-11-26T01:33:05.043Z,0
2017-11-26T01:34:17.326Z,0
2017-11-26T01:35:29.587Z,0
2017-11-26T01:36:42.300Z,0
2017-11-26T01:37:54.991Z,0
2017-11-26T01:39:07.678Z,0
2017-11-26T01:40:19.956Z,0
2017-11-26T01:41:32.736Z,0
2017-11-26T01:42:44.980Z,0
2017-11-26T01:43:57.761Z,0
2017-11-26T01:45:10.494Z,0
2017-11-26T01:46:23.231Z,0
2017-11-26T01:47:35.976Z,0
2017-11-26T01:48:48.674Z,0
2017-11-26T01:50:00.982Z,0
2017-11-26T01:51:12.811Z,0
2017-11-26T01:52:25.522Z,0
2017-11-26T01:53:38.265Z,0
2017-11-26T01:54:50.993Z,0
2017-11-26T01:56:03.812Z,0
2017-11-26T01:57:16.588Z,0
2017-11-26T01:58:28.436Z,0
2017-11-26T01:59:40.698Z,0
2017-11-26T02:00:53.350Z,0
2017-11-26T02:02:06.083Z,0
2017-11-26T02:03:18.794Z,0
2017-11-26T02:04:31.537Z,0
2017-11-26T02:05:44.290Z,0
2017-11-26T02:06:57.023Z,0
2017-11-26T02:08:09.689Z,0
2017-11-26T02:09:22.415Z,0
2017-11-26T02:10:35.129Z,0
2017-11-26T02:11:47.445Z,0
2017-11-26T02:13:00.097Z,0
2017-11-26T02:14:12.347Z,0
2017-11-26T02:15:24.611Z,0
2017-11-26T02:16:37.296Z,0
2017-11-26T02:17:50.040Z,0
2017-11-26T02:19:02.708Z,0
2017-11-26T02:20:15.426Z,0
2017-11-26T02:21:28.107Z,0
2017-11-26T02:22:40.842Z,0
2017-11-26T02:23:53.650Z,0
2017-11-26T02:25:05.965Z,0
2017-11-26T02:26:18.757Z,0
2017-11-26T02:27:31.451Z,0
2017-11-26T02:28:44.136Z,0
2017-11-26T02:29:56.836Z,0
2017-11-26T02:31:09.580Z,0
2017-11-26T02:32:22.260Z,0
2017-11-26T02:33:34.519Z,0
2017-11-26T02:34:47.305Z,0
2017-11-26T02:36:00.053Z,0
2017-11-26T02:37:12.823Z,0
2017-11-26T02:38:25.540Z,0
2017-11-26T02:39:37.818Z,0
2017-11-26T02:40:50.618Z,0
2017-11-26T02:42:03.438Z,0
2017-11-26T02:43:16.241Z,0
2017-11-26T02:44:29.024Z,0
2017-11-26T02:45:41.854Z,0
2017-11-26T02:46:54.669Z,0
2017-11-26T02:48:07.456Z,0
2017-11-26T02:49:20.253Z,0
2017-11-26T02:50:33.055Z,0
2017-11-26T02:51:45.875Z,0
2017-11-26T02:52:58.212Z,0
2017-11-26T02:54:10.563Z,0
2017-11-26T02:55:23.400Z,0
2017-11-26T02:56:36.185Z,0
2017-11-26T02:57:48.964Z,0
2017-11-26T02:59:01.758Z,0
2017-11-26T03:00:14.114Z,0
2017-11-26T03:01:26.912Z,0
2017-11-26T03:02:39.247Z,0
2017-11-26T03:03:52.037Z,0
2017-11-26T03:05:04.839Z,0
2017-11-26T03:06:16.736Z,0
2017-11-26T03:07:29.529Z,0
2017-11-26T03:08:42.314Z,0
2017-11-26T03:09:55.106Z,0
2017-11-26T03:11:07.991Z,0
2017-11-26T03:12:20.776Z,0
2017-11-26T03:13:33.559Z,0
2017-11-26T03:14:46.333Z,0
2017-11-26T03:15:59.138Z,0
2017-11-26T03:17:11.901Z,0
2017-11-26T03:18:24.695Z,0
2017-11-26T03:19:37.507Z,0
2017-11-26T03:20:50.392Z,0
2017-11-26T03:22:03.181Z,0
2017-11-26T03:23:15.990Z,0
2017-11-26T03:24:28.806Z,0
2017-11-26T03:25:41.609Z,0
2017-11-26T03:26:54.399Z,0
2017-11-26T03:28:07.189Z,0
2017-11-26T03:29:19.971Z,0
2017-11-26T03:30:32.342Z,0
2017-11-26T03:31:45.163Z,0
2017-11-26T03:32:57.946Z,0
2017-11-26T03:34:10.748Z,0
2017-11-26T03:35:23.551Z,0
2017-11-26T03:36:36.326Z,0
2017-11-26T03:37:49.122Z,0
2017-11-26T03:39:01.923Z,0
2017-11-26T03:40:14.712Z,0
2017-11-26T03:41:27.466Z,0
2017-11-26T03:42:40.268Z,0
2017-11-26T03:43:53.057Z,0
2017-11-26T03:45:05.405Z,0
2017-11-26T03:46:18.194Z,0
2017-11-26T03:47:31.002Z,0
2017-11-26T03:48:43.390Z,0
2017-11-26T03:49:56.174Z,0
2017-11-26T03:51:08.940Z,0
2017-11-26T03:52:21.723Z,0
2017-11-26T03:53:34.065Z,0
2017-11-26T03:54:46.865Z,0
2017-11-26T03:55:59.656Z,0
2017-11-26T03:57:12.495Z,0
2017-11-26T03:58:25.282Z,0
2017-11-26T03:59:37.635Z,0
2017-11-26T04:00:49.886Z,0
2017-11-26T04:02:02.596Z,0
2017-11-26T04:03:14.400Z,0
2017-11-26T04:04:27.194Z,0
2017-11-26T04:05:39.505Z,0
2017-11-26T04:06:52.252Z,0
2017-11-26T04:08:04.543Z,0
2017-11-26T04:09:17.251Z,0
2017-11-26T04:10:29.986Z,0
2017-11-26T04:11:42.698Z,0
2017-11-26T04:12:55.425Z,0
2017-11-26T04:14:08.148Z,0
2017-11-26T04:15:20.425Z,0
2017-11-26T04:16:33.180Z,0
2017-11-26T04:17:45.476Z,0
2017-11-26T04:18:57.742Z,0
2017-11-26T04:20:10.462Z,0
2017-11-26T04:21:22.803Z,0
2017-11-26T04:22:35.523Z,0
2017-11-26T04:23:47.835Z,0
2017-11-26T04:25:00.552Z,0
2017-11-26T04:26:12.838Z,0
2017-11-26T04:27:25.532Z,0
2017-11-26T04:28:37.746Z,0
2017-11-26T04:29:49.994Z,0
2017-11-26T04:31:02.713Z,0
2017-11-26T04:32:15.658Z,0
2017-11-26T04:33:28.385Z,0
2017-11-26T04:34:41.189Z,0
2017-11-26T04:35:53.517Z,0
2017-11-26T04:37:05.840Z,0
2017-11-26T04:38:18.617Z,0
2017-11-26T04:39:30.902Z,0
2017-11-26T04:40:43.686Z,0
2017-11-26T04:41:56.484Z,0
2017-11-26T04:43:09.264Z,0
2017-11-26T04:44:22.030Z,0
2017-11-26T04:45:34.373Z,0
2017-11-26T04:46:47.158Z,0
2017-11-26T04:47:59.467Z,0
2017-11-26T04:49:12.283Z,0
2017-11-26T04:50:24.146Z,0
2017-11-26T04:51:36.908Z,0
2017-11-26T04:52:49.654Z,0
2017-11-26T04:54:02.433Z,0
2017-11-26T04:55:15.215Z,0
2017-11-26T04:56:28.009Z,0
2017-11-26T04:57:40.814Z,0
2017-11-26T04:58:53.580Z,0
2017-11-26T05:00:06.341Z,0
2017-11-26T05:01:18.686Z,0
2017-11-26T05:02:31.482Z,0
2017-11-26T05:03:44.264Z,0
2017-11-26T05:04:57.038Z,0
2017-11-26T05:06:09.826Z,0
2017-11-26T05:07:21.708Z,0
2017-11-26T05:08:34.489Z,0
2017-11-26T05:09:47.289Z,0
2017-11-26T05:11:00.090Z,0
2017-11-26T05:12:12.914Z,0
2017-11-26T05:13:25.241Z,0
2017-11-26T05:14:38.014Z,0
2017-11-26T05:15:50.454Z,0
2017-11-26T05:17:03.265Z,0
2017-11-26T05:18:16.079Z,0
2017-11-26T05:19:28.881Z,0
2017-11-26T05:20:41.680Z,0
2017-11-26T05:21:54.513Z,0
2017-11-26T05:23:07.307Z,0
2017-11-26T05:24:19.163Z,0
2017-11-26T05:25:31.914Z,0
2017-11-26T05:26:44.708Z,0
2017-11-26T05:27:57.466Z,0
2017-11-26T05:29:10.271Z,0
2017-11-26T05:30:23.027Z,0
2017-11-26T05:31:35.812Z,0
2017-11-26T05:32:48.139Z,0
2017-11-26T05:34:00.806Z,0
2017-11-26T05:35:13.557Z,0
2017-11-26T05:36:26.316Z,0
2017-11-26T05:37:38.553Z,0
2017-11-26T05:38:51.302Z,0
2017-11-26T05:40:03.977Z,0
2017-11-26T05:41:16.672Z,0
2017-11-26T05:42:29.383Z,0
2017-11-26T05:43:42.140Z,0
2017-11-26T05:44:54.898Z,0
2017-11-26T05:46:07.134Z,0
2017-11-26T05:47:19.833Z,0
2017-11-26T05:48:32.589Z,0
2017-11-26T05:49:45.324Z,0
2017-11-26T05:50:58.032Z,0
2017-11-26T05:52:10.745Z,0
2017-11-26T05:53:23.531Z,0
2017-11-26T05:54:36.236Z,0
2017-11-26T05:55:48.965Z,0
2017-11-26T05:57:01.705Z,0
2017-11-26T05:58:14.381Z,0
2017-11-26T05:59:27.040Z,0
2017-11-26T06:00:39.711Z,0
2017-11-26T06:01:52.427Z,0
2017-11-26T06:03:05.103Z,0
2017-11-26T06:04:17.304Z,0
2017-11-26T06:05:30.020Z,0
2017-11-26T06:06:42.732Z,0
2017-11-26T06:07:55.468Z,0
2017-11-26T06:09:08.247Z,0
2017-11-26T06:10:20.520Z,0
2017-11-26T06:11:33.243Z,0
2017-11-26T06:12:45.931Z,0
2017-11-26T06:13:58.179Z,0
2017-11-26T06:15:10.986Z,0
2017-11-26T06:16:23.625Z,0
2017-11-26T06:17:36.337Z,0
2017-11-26T06:18:49.003Z,0
2017-11-26T06:20:01.737Z,0
2017-11-26T06:21:14.377Z,0
2017-11-26T06:22:27.078Z,0
2017-11-26T06:23:39.779Z,0
2017-11-26T06:24:52.007Z,0
2017-11-26T06:26:04.782Z,0
2017-11-26T06:27:17.463Z,0
2017-11-26T06:28:30.125Z,0
2017-11-26T06:29:42.800Z,0
2017-11-26T06:30:55.494Z,0
2017-11-26T06:32:08.263Z,0
2017-11-26T06:33:20.963Z,0
2017-11-26T06:34:33.227Z,0
2017-11-26T06:35:45.922Z,0
2017-11-26T06:36:58.624Z,0
2017-11-26T06:38:10.432Z,0
2017-11-26T06:39:22.685Z,0
2017-11-26T06:40:35.359Z,0
2017-11-26T06:41:48.054Z,0
2017-11-26T06:42:59.455Z,0
2017-11-26T06:44:11.683Z,0
2017-11-26T06:45:23.932Z,0
2017-11-26T06:46:36.644Z,0
2017-11-26T06:47:49.266Z,0
2017-11-26T06:49:01.880Z,0
2017-11-26T06:50:14.554Z,0
2017-11-26T06:51:27.170Z,0
2017-11-26T06:52:39.368Z,0
2017-11-26T06:53:51.584Z,0
2017-11-26T06:55:04.268Z,0
2017-11-26T06:56:16.486Z,0
2017-11-26T06:57:29.165Z,0
2017-11-26T06:58:41.800Z,0
2017-11-26T06:59:54.480Z,0
2017-11-26T07:01:06.704Z,0
2017-11-26T07:02:19.422Z,0
2017-11-26T07:03:32.079Z,0
2017-11-26T07:04:44.793Z,0
2017-11-26T07:05:57.478Z,0
2017-11-26T07:07:10.152Z,0
2017-11-26T07:08:22.771Z,0
2017-11-26T07:09:35.430Z,0
2017-11-26T07:10:47.645Z,0
2017-11-26T07:11:59.858Z,0
2017-11-26T07:13:12.119Z,0
2017-11-26T07:14:24.772Z,0
2017-11-26T07:15:37.007Z,0
2017-11-26T07:16:49.281Z,0
2017-11-26T07:18:02.014Z,0
2017-11-26T07:19:14.707Z,0
2017-11-26T07:20:26.973Z,0
2017-11-26T07:21:39.697Z,0
2017-11-26T07:22:52.437Z,0
2017-11-26T07:24:05.107Z,0
2017-11-26T07:25:17.810Z,0
2017-11-26T07:26:30.520Z,0
2017-11-26T07:27:42.727Z,0
2017-11-26T07:28:55.423Z,0
2017-11-26T07:30:08.108Z,0
2017-11-26T07:31:20.825Z,0
2017-11-26T07:32:33.480Z,0
2017-11-26T07:33:45.675Z,0
2017-11-26T07:34:58.333Z,0
2017-11-26T07:36:11.005Z,0
2017-11-26T07:37:23.691Z,0
2017-11-26T07:38:36.314Z,0
2017-11-26T07:39:49.003Z,0
2017-11-26T07:41:01.252Z,0
2017-11-26T07:42:13.944Z,0
2017-11-26T07:43:26.170Z,0
2017-11-26T07:44:38.819Z,0
2017-11-26T07:45:51.468Z,0
2017-11-26T07:47:04.148Z,0
2017-11-26T07:48:16.357Z,0
2017-11-26T07:49:28.999Z,0
2017-11-26T07:50:41.227Z,0
2017-11-26T07:51:53.942Z,0
2017-11-26T07:53:06.621Z,0
2017-11-26T07:54:19.279Z,0
2017-11-26T07:55:31.920Z,0
2017-11-26T07:56:44.536Z,0
2017-11-26T07:57:57.157Z,0
2017-11-26T07:59:09.799Z,0
2017-11-26T08:00:22.430Z,0
2017-11-26T08:01:34.630Z,0
2017-11-26T08:02:47.315Z,0
2017-11-26T08:03:59.928Z,0
2017-11-26T08:05:12.169Z,0
2017-11-26T08:06:24.455Z,0
2017-11-26T08:07:37.153Z,0
2017-11-26T08:08:49.800Z,0
2017-11-26T08:10:01.977Z,0
2017-11-26T08:11:14.610Z,0
2017-11-26T08:12:26.436Z,0
2017-11-26T08:13:39.050Z,0
2017-11-26T08:14:51.695Z,0
2017-11-26T08:16:03.890Z,0
2017-11-26T08:17:15.648Z,0
2017-11-26T08:18:28.262Z,0
2017-11-26T08:19:40.853Z,0
2017-11-26T08:20:53.550Z,0
2017-11-26T08:22:05.785Z,0
2017-11-26T08:23:18.507Z,0
2017-11-26T08:24:31.166Z,0
2017-11-26T08:25:43.840Z,0
2017-11-26T08:26:56.590Z,0
2017-11-26T08:28:08.803Z,0
2017-11-26T08:29:21.435Z,0
2017-11-26T08:30:34.022Z,0
2017-11-26T08:31:46.672Z,0
2017-11-26T08:32:59.367Z,0
2017-11-26T08:34:11.557Z,0
2017-11-26T08:35:24.243Z,0
2017-11-26T08:36:36.924Z,0
2017-11-26T08:37:49.559Z,0
2017-11-26T08:39:02.295Z,0
2017-11-26T08:40:14.528Z,0
2017-11-26T08:41:27.210Z,0
2017-11-26T08:42:39.872Z,0
2017-11-26T08:43:52.580Z,0
2017-11-26T08:45:05.358Z,0
2017-11-26T08:46:17.543Z,0
2017-11-26T08:47:30.190Z,0
2017-11-26T08:48:42.818Z,0
2017-11-26T08:49:55.513Z,0
2017-11-26T08:51:07.766Z,0
2017-11-26T08:52:20.505Z,0
2017-11-26T08:53:32.723Z,0
2017-11-26T08:54:45.445Z,0
2017-11-26T08:55:57.187Z,0
2017-11-26T08:57:09.758Z,0
2017-11-26T08:58:22.412Z,0
2017-11-26T08:59:34.995Z,0
2017-11-26T09:00:47.585Z,0
2017-11-26T09:02:00.144Z,0
2017-11-26T09:03:12.723Z,0
2017-11-26T09:04:25.300Z,0
2017-11-26T09:05:37.888Z,0
2017-11-26T09:06:50.487Z,5
2017-11-26T09:08:03.051Z,5
2017-11-26T09:09:15.681Z,5
2017-11-26T09:10:28.218Z,5
2017-11-26T09:11:40.780Z,5
2017-11-26T09:12:53.358Z,5
2017-11-26T09:14:05.981Z,5
2017-11-26T09:15:18.674Z,5
2017-11-26T09:16:31.298Z,5
2017-11-26T09:17:43.929Z,5
2017-11-26T09:18:56.542Z,5
2017-11-26T09:20:08.693Z,5
2017-11-26T09:21:20.413Z,5
2017-11-26T09:22:33.062Z,5
2017-11-26T09:23:45.623Z,10
2017-11-26T09:24:57.820Z,10
2017-11-26T09:26:10.434Z,10
2017-11-26T09:27:22.169Z,15
2017-11-26T09:28:34.301Z,15
2017-11-26T09:29:46.455Z,15
2017-11-26T09:30:58.640Z,15
2017-11-26T09:32:10.804Z,15
2017-11-26T09:33:23.380Z,15
2017-11-26T09:34:35.994Z,15
2017-11-26T09:35:48.156Z,15
2017-11-26T09:37:00.750Z,15
2017-11-26T09:38:13.413Z,15
2017-11-26T09:39:26.030Z,15
2017-11-26T09:40:38.703Z,15
2017-11-26T09:41:51.317Z,15
2017-11-26T09:43:03.990Z,15
2017-11-26T09:44:16.634Z,15
2017-11-26T09:45:28.816Z,15
2017-11-26T09:46:41.432Z,15
2017-11-26T09:47:53.688Z,15
2017-11-26T09:49:06.423Z,15
2017-11-26T09:50:19.174Z,15
2017-11-26T09:51:31.837Z,15
2017-11-26T09:52:44.057Z,15
2017-11-26T09:53:56.696Z,15
2017-11-26T09:55:08.947Z,15
2017-11-26T09:56:20.706Z,15
2017-11-26T09:57:33.424Z,15
2017-11-26T09:58:46.112Z,15
2017-11-26T09:59:58.770Z,10
2017-11-26T10:01:11.036Z,10
2017-11-26T10:02:23.700Z,10
2017-11-26T10:03:35.934Z,10
2017-11-26T10:04:48.133Z,10
2017-11-26T10:06:00.434Z,10
2017-11-26T10:07:12.681Z,15
2017-11-26T10:08:25.356Z,15
2017-11-26T10:09:38.117Z,15
2017-11-26T10:10:50.349Z,15
2017-11-26T10:12:03.044Z,15
2017-11-26T10:13:15.776Z,20
2017-11-26T10:14:28.405Z,20
2017-11-26T10:15:41.159Z,15
2017-11-26T10:16:53.784Z,15
2017-11-26T10:18:06.468Z,15
2017-11-26T10:19:19.149Z,15
2017-11-26T10:20:31.401Z,15
2017-11-26T10:21:43.652Z,20
2017-11-26T10:22:56.314Z,15
2017-11-26T10:24:08.986Z,15
2017-11-26T10:25:20.760Z,15
2017-11-26T10:26:33.407Z,15
2017-11-26T10:27:46.086Z,20
2017-11-26T10:28:58.765Z,20
2017-11-26T10:30:11.034Z,20
2017-11-26T10:31:23.316Z,20
2017-11-26T10:32:35.509Z,20
2017-11-26T10:33:48.206Z,20
2017-11-26T10:35:00.915Z,20
2017-11-26T10:36:13.601Z,15
2017-11-26T10:37:26.243Z,15
2017-11-26T10:38:38.941Z,15
2017-11-26T10:39:51.640Z,15
2017-11-26T10:41:04.277Z,15
2017-11-26T10:42:16.508Z,15
2017-11-26T10:43:28.766Z,20
2017-11-26T10:44:41.016Z,20
2017-11-26T10:45:53.784Z,15
2017-11-26T10:47:06.518Z,15
2017-11-26T10:48:19.248Z,10
2017-11-26T10:49:31.917Z,10
2017-11-26T10:50:44.616Z,10
2017-11-26T10:51:57.333Z,10
2017-11-26T10:53:10.070Z,10
2017-11-26T10:54:22.811Z,10
2017-11-26T10:55:35.055Z,10
2017-11-26T10:56:47.338Z,10
2017-11-26T10:57:59.609Z,10
2017-11-26T10:59:11.938Z,10
2017-11-26T11:00:24.653Z,10
2017-11-26T11:01:36.453Z,10
2017-11-26T11:02:48.705Z,10
2017-11-26T11:04:01.404Z,10
2017-11-26T11:05:14.138Z,10
2017-11-26T11:06:25.954Z,10
2017-11-26T11:07:38.640Z,10
2017-11-26T11:08:51.356Z,10
2017-11-26T11:10:04.101Z,10
2017-11-26T11:11:16.434Z,10
2017-11-26T11:12:28.720Z,10
2017-11-26T11:13:41.442Z,10
2017-11-26T11:14:53.733Z,10
2017-11-26T11:16:06.019Z,10
2017-11-26T11:17:18.333Z,10
2017-11-26T11:18:31.089Z,15
2017-11-26T11:19:43.377Z,15
2017-11-26T11:20:56.125Z,15
2017-11-26T11:22:08.897Z,15
2017-11-26T11:23:21.647Z,20
2017-11-26T11:24:34.407Z,20
2017-11-26T11:25:46.697Z,20
2017-11-26T11:26:59.446Z,15
2017-11-26T11:28:12.188Z,15
2017-11-26T11:29:24.939Z,20
2017-11-26T11:30:37.684Z,20
2017-11-26T11:31:50.438Z,20
2017-11-26T11:33:03.177Z,20
2017-11-26T11:34:15.939Z,20
2017-11-26T11:35:28.232Z,20
2017-11-26T11:36:40.994Z,20
2017-11-26T11:37:53.745Z,20
2017-11-26T11:39:06.484Z,25
2017-11-26T11:40:19.231Z,25
2017-11-26T11:41:31.547Z,25
2017-11-26T11:42:44.308Z,25
2017-11-26T11:43:57.056Z,20
2017-11-26T11:45:09.823Z,20
2017-11-26T11:46:22.118Z,20
2017-11-26T11:47:34.907Z,20
2017-11-26T11:48:47.223Z,20
2017-11-26T11:50:00.023Z,20
2017-11-26T11:51:12.788Z,20
2017-11-26T11:52:25.554Z,20
2017-11-26T11:53:38.323Z,25
2017-11-26T11:54:51.126Z,25
2017-11-26T11:56:03.895Z,25
2017-11-26T11:57:16.225Z,25
2017-11-26T11:58:28.982Z,25
2017-11-26T11:59:41.797Z,30
2017-11-26T12:00:54.112Z,30
2017-11-26T12:02:06.438Z,30
2017-11-26T12:03:18.743Z,35
2017-11-26T12:04:31.533Z,40
2017-11-26T12:05:44.327Z,40
2017-11-26T12:06:57.116Z,35
2017-11-26T12:08:09.882Z,40
2017-11-26T12:09:22.688Z,40
2017-11-26T12:10:35.473Z,40
2017-11-26T12:11:48.250Z,45
2017-11-26T12:13:00.593Z,40
2017-11-26T12:14:13.395Z,40
2017-11-26T12:15:26.200Z,35
2017-11-26T12:16:38.983Z,40
2017-11-26T12:17:51.772Z,45
2017-11-26T12:19:04.566Z,40
2017-11-26T12:20:17.277Z,35
2017-11-26T12:21:30.055Z,40
2017-11-26T12:22:42.366Z,40
2017-11-26T12:23:54.680Z,60
2017-11-26T12:25:07.483Z,50
2017-11-26T12:26:20.223Z,40
2017-11-26T12:27:32.098Z,40
2017-11-26T12:28:44.907Z,40
2017-11-26T12:29:57.698Z,40
2017-11-26T12:31:10.505Z,45
2017-11-26T12:32:23.357Z,40
2017-11-26T12:33:36.218Z,35
2017-11-26T12:34:48.550Z,40
2017-11-26T12:36:01.354Z,45
2017-11-26T12:37:14.208Z,45
2017-11-26T12:38:27.011Z,45
2017-11-26T12:39:39.403Z,55
2017-11-26T12:40:52.181Z,55
2017-11-26T12:42:05.136Z,55
2017-11-26T12:43:17.879Z,55
2017-11-26T12:44:30.647Z,65
2017-11-26T12:45:43.042Z,80
2017-11-26T12:46:55.796Z,85
2017-11-26T12:48:08.516Z,75
2017-11-26T12:49:21.285Z,70
2017-11-26T12:50:34.005Z,55
2017-11-26T12:51:46.752Z,50
2017-11-26T12:52:59.048Z,55
2017-11-26T12:54:11.770Z,60
2017-11-26T12:55:24.542Z,55
2017-11-26T12:56:36.820Z,75
2017-11-26T12:57:49.595Z,50
2017-11-26T12:59:01.909Z,60
2017-11-26T13:00:14.211Z,90
2017-11-26T13:01:26.510Z,25
2017-11-26T13:02:39.258Z,75
2017-11-26T13:03:52.007Z,65
2017-11-26T13:05:04.290Z,80
2017-11-26T13:06:16.592Z,95
2017-11-26T13:07:29.370Z,90
2017-11-26T13:08:42.114Z,90
2017-11-26T13:09:54.822Z,95
2017-11-26T13:11:06.649Z,105
2017-11-26T13:12:19.337Z,95
2017-11-26T13:13:32.065Z,95
2017-11-26T13:14:43.842Z,105
2017-11-26T13:15:56.063Z,80
2017-11-26T13:17:07.904Z,100
2017-11-26T13:18:20.577Z,40
2017-11-26T13:19:33.268Z,35
2017-11-26T13:20:46.010Z,75
2017-11-26T13:21:58.840Z,40
2017-11-26T13:23:11.592Z,105
2017-11-26T13:24:24.328Z,40
2017-11-26T13:25:37.044Z,50
2017-11-26T13:26:49.741Z,30
2017-11-26T13:28:02.032Z,35
2017-11-26T13:29:14.698Z,35
2017-11-26T13:30:27.440Z,95
2017-11-26T13:31:40.155Z,95
2017-11-26T13:32:52.448Z,95
2017-11-26T13:34:04.316Z,55
2017-11-26T13:35:17.055Z,55
2017-11-26T13:36:29.783Z,40
2017-11-26T13:37:42.479Z,40
2017-11-26T13:38:55.205Z,55
2017-11-26T13:40:07.954Z,50
2017-11-26T13:41:20.676Z,40
2017-11-26T13:42:33.377Z,55
2017-11-26T13:43:45.673Z,50
2017-11-26T13:44:58.429Z,35
2017-11-26T13:46:10.737Z,25
2017-11-26T13:47:23.469Z,25
2017-11-26T13:48:36.174Z,20
2017-11-26T13:49:48.852Z,25
2017-11-26T13:51:01.550Z,30
2017-11-26T13:52:14.272Z,30
2017-11-26T13:53:27.045Z,30
2017-11-26T13:54:39.830Z,40
2017-11-26T13:55:52.168Z,40
2017-11-26T13:57:04.921Z,35
2017-11-26T13:58:17.705Z,40
2017-11-26T13:59:29.962Z,45
2017-11-26T14:00:42.796Z,40
2017-11-26T14:01:55.550Z,70
2017-11-26T14:03:08.313Z,40
2017-11-26T14:04:20.661Z,35
2017-11-26T14:05:33.452Z,30
2017-11-26T14:06:45.829Z,30
2017-11-26T14:07:58.629Z,35
2017-11-26T14:09:11.421Z,70
2017-11-26T14:10:23.695Z,40
2017-11-26T14:11:36.493Z,65
2017-11-26T14:12:49.249Z,55
2017-11-26T14:14:02.015Z,125
2017-11-26T14:15:14.332Z,60
2017-11-26T14:16:27.060Z,115
2017-11-26T14:17:39.798Z,70
2017-11-26T14:18:52.095Z,85
2017-11-26T14:20:04.440Z,55
2017-11-26T14:21:16.786Z,35
2017-11-26T14:22:29.161Z,25
2017-11-26T14:23:41.949Z,20
2017-11-26T14:24:54.736Z,20
2017-11-26T14:26:07.535Z,15
2017-11-26T14:27:20.326Z,15
2017-11-26T14:28:32.635Z,10
2017-11-26T14:29:45.370Z,15
2017-11-26T14:30:57.691Z,20
2017-11-26T14:32:10.493Z,20
2017-11-26T14:33:23.244Z,20
2017-11-26T14:34:36.006Z,20
2017-11-26T14:35:48.715Z,20
2017-11-26T14:37:01.038Z,25
2017-11-26T14:38:13.834Z,25
2017-11-26T14:39:26.161Z,25
2017-11-26T14:40:38.971Z,25
2017-11-26T14:41:51.767Z,35
2017-11-26T14:43:04.537Z,45
2017-11-26T14:44:17.359Z,65
2017-11-26T14:45:29.688Z,60
2017-11-26T14:46:41.990Z,70
2017-11-26T14:47:54.746Z,45
2017-11-26T14:49:07.481Z,50
2017-11-26T14:50:20.251Z,45
2017-11-26T14:51:32.999Z,40
2017-11-26T14:52:45.733Z,35
2017-11-26T14:53:58.042Z,30
2017-11-26T14:55:10.766Z,30
2017-11-26T14:56:23.538Z,40
2017-11-26T14:57:36.305Z,35
2017-11-26T14:58:49.006Z,30
2017-11-26T15:00:01.790Z,30
2017-11-26T15:01:14.090Z,20
2017-11-26T15:02:26.897Z,20
2017-11-26T15:03:39.663Z,20
2017-11-26T15:04:51.525Z,30
2017-11-26T15:06:03.791Z,40
2017-11-26T15:07:16.541Z,30
2017-11-26T15:08:28.856Z,30
2017-11-26T15:09:41.634Z,30
2017-11-26T15:10:54.420Z,30
2017-11-26T15:12:07.217Z,30
2017-11-26T15:13:19.576Z,25
2017-11-26T15:14:32.334Z,40
2017-11-26T15:15:45.131Z,50
2017-11-26T15:16:57.931Z,60
2017-11-26T15:18:09.778Z,55
2017-11-26T15:19:22.554Z,75
2017-11-26T15:20:35.338Z,90
2017-11-26T15:21:48.105Z,75
2017-11-26T15:23:00.906Z,75
2017-11-26T15:24:13.335Z,50
2017-11-26T15:25:25.723Z,40
2017-11-26T15:26:38.534Z,40
2017-11-26T15:27:51.449Z,40
2017-11-26T15:29:03.850Z,45
2017-11-26T15:30:16.761Z,50
2017-11-26T15:31:29.566Z,45
2017-11-26T15:32:42.525Z,40
2017-11-26T15:33:55.363Z,40
2017-11-26T15:35:08.166Z,40
2017-11-26T15:36:20.946Z,35
2017-11-26T15:37:32.820Z,40
2017-11-26T15:38:45.560Z,85
2017-11-26T15:39:58.300Z,40
2017-11-26T15:41:11.090Z,35
2017-11-26T15:42:23.900Z,40
2017-11-26T15:43:36.702Z,40
2017-11-26T15:44:49.535Z,40
2017-11-26T15:46:02.339Z,40
2017-11-26T15:47:14.634Z,45
2017-11-26T15:48:27.390Z,55
2017-11-26T15:49:40.215Z,55
2017-11-26T15:50:53.041Z,65
2017-11-26T15:52:05.351Z,55
2017-11-26T15:53:17.702Z,55
2017-11-26T15:54:30.470Z,40
2017-11-26T15:55:42.729Z,25
2017-11-26T15:56:55.015Z,25
2017-11-26T15:58:07.342Z,20
2017-11-26T15:59:20.099Z,25
2017-11-26T16:00:32.834Z,25
2017-11-26T16:01:45.125Z,30
2017-11-26T16:02:57.857Z,30
2017-11-26T16:04:10.661Z,55
2017-11-26T16:05:23.537Z,35
2017-11-26T16:06:35.857Z,65
2017-11-26T16:07:48.181Z,40
2017-11-26T16:09:00.902Z,40
2017-11-26T16:10:13.244Z,35
2017-11-26T16:11:25.993Z,40
2017-11-26T16:12:37.847Z,35
2017-11-26T16:13:50.157Z,40
2017-11-26T16:15:02.949Z,40
2017-11-26T16:16:15.257Z,40
2017-11-26T16:17:27.547Z,50
2017-11-26T16:18:40.335Z,70
2017-11-26T16:19:52.159Z,60
2017-11-26T16:21:04.892Z,60
2017-11-26T16:22:17.597Z,55
2017-11-26T16:23:30.332Z,60
2017-11-26T16:24:42.604Z,55
2017-11-26T16:25:55.317Z,55
2017-11-26T16:27:08.052Z,30
2017-11-26T16:28:20.801Z,60
2017-11-26T16:29:32.185Z,55
2017-11-26T16:30:44.457Z,55
2017-11-26T16:31:56.255Z,35
2017-11-26T16:33:08.496Z,35
2017-11-26T16:34:21.207Z,30
2017-11-26T16:35:33.910Z,25
2017-11-26T16:36:46.624Z,25
2017-11-26T16:37:59.320Z,35
2017-11-26T16:39:11.577Z,50
2017-11-26T16:40:23.853Z,70
2017-11-26T16:41:36.572Z,50
2017-11-26T16:42:48.817Z,40
2017-11-26T16:44:01.554Z,45
2017-11-26T16:45:13.826Z,55
2017-11-26T16:46:26.087Z,50
2017-11-26T16:47:38.801Z,30
2017-11-26T16:48:51.509Z,20
2017-11-26T16:50:04.234Z,25
2017-11-26T16:51:16.039Z,25
2017-11-26T16:52:28.701Z,35
2017-11-26T16:53:41.402Z,35
2017-11-26T16:54:53.648Z,30
2017-11-26T16:56:06.318Z,20
2017-11-26T16:57:19.030Z,20
2017-11-26T16:58:31.745Z,30
2017-11-26T16:59:44.439Z,25
2017-11-26T17:00:57.116Z,20
2017-11-26T17:02:08.480Z,20
2017-11-26T17:03:20.714Z,15
2017-11-26T17:04:33.371Z,15
2017-11-26T17:05:46.111Z,15
2017-11-26T17:06:58.821Z,15
2017-11-26T17:08:11.041Z,20
2017-11-26T17:09:23.746Z,20
2017-11-26T17:10:36.452Z,15
2017-11-26T17:11:48.615Z,15
2017-11-26T17:13:01.236Z,15
2017-11-26T17:14:13.365Z,25
2017-11-26T17:15:26.142Z,40
2017-11-26T17:16:38.805Z,35
2017-11-26T17:17:51.467Z,40
2017-11-26T17:19:04.216Z,45
2017-11-26T17:20:16.939Z,40
2017-11-26T17:21:29.504Z,65
2017-11-26T17:22:41.784Z,50
2017-11-26T17:23:54.520Z,45
2017-11-26T17:25:07.245Z,45
2017-11-26T17:26:19.885Z,55
2017-11-26T17:27:32.490Z,55
2017-11-26T17:28:45.128Z,60
2017-11-26T17:29:56.902Z,35
2017-11-26T17:31:09.603Z,40
2017-11-26T17:32:21.850Z,50
2017-11-26T17:33:34.493Z,35
2017-11-26T17:34:46.255Z,65